Accueil
METAR-TAF:

METAR-TAF

Aéroports :

Aéroport international Mehrabad

Téhéran, Iran

latitude: 35-41N, longitude: 051-21E, altitude: 1204 m

Observation

Le bulletin a été fait il y a 16 minutes, à 11:00 UTC
Vent 6 kt de sud
Température 33°C
Humidité 20%
Pression 1013 hPa
Visibilité: 8000 m
Quelques nuages à une hauteur de 4000 ft

METAR: OIII 201100Z 17006KT 8000 FEW040 33/07 Q1012 A2990 NOSIG

Heure: 15:46 (11:16 UTC)

Prévision

Le bulletin a été fait il y a 5 heures et 31 minutes, à 05:45 UTC
Prévision valable du 20 à 06 UTC au 21 à 12 UTC
Vent 8 kt de ouest
Visibilité: 8000 m
Temporairement
du 20 à 14 UTC au 20 à 21 UTC
Vent 16 kt de ouest/nord-ouest avec des rafales jusqu'à 25 kt
Visibilité: 4000 m
sable
Probabilité 40%
du 20 à 15 UTC au 20 à 18 UTC
Visibilité: 1500 m
sable

TAF: OIII 200545Z 2006/2112 27004MPS 8000 NSC TEMPO 2014/2021 30008G13MPS 4000 SA PROB40 2015/2018 1500 SA

Observations et prévisions météorologiques de plus de 4000 aéroports (messages METAR et TAF).

Les stations disponibles sont représentées par des disques jaunes et rouges sur la carte.

Passer la souris dessus pour voir le nom de la station.

Cliquer dessus pour voir les observations et prévisions météorologiques.

Pour changer de carte: cliquez sur les boutons verts avec une croix noire pour zoomer, sur le bouton vert avec un tiret pour effectuer un zoom arrière, ou sur les flèches vertes pour les cartes adjacentes.


METAR-TAF: